createdAt,value
2019-04-04T11:41:29.239Z,95902.58
2019-04-04T11:43:57.540Z,95909.17
2019-04-04T11:46:26.150Z,95910.89
2019-04-04T11:48:54.454Z,95922.86
2019-04-04T11:51:22.895Z,95951.58
2019-04-04T11:53:52.936Z,95958.83
2019-04-04T11:56:21.259Z,95949.38
2019-04-04T11:58:49.575Z,95949.66
2019-04-04T12:01:19.371Z,95964.55
2019-04-04T12:03:50.224Z,95994.98
2019-04-04T12:06:18.694Z,95983.20
2019-04-04T12:08:46.975Z,95987.02
2019-04-04T12:11:15.398Z,96005.43
2019-04-04T12:13:43.773Z,95999.33
2019-04-04T12:16:12.103Z,96006.97
2019-04-04T12:18:40.399Z,96012.55
2019-04-04T12:21:08.757Z,96029.87
2019-04-04T12:23:37.118Z,96025.13
2019-04-04T12:26:05.578Z,96024.94
2019-04-04T12:28:33.875Z,96044.73
2019-04-04T12:31:02.727Z,96050.75
2019-04-04T12:33:31.097Z,96049.84
2019-04-04T12:35:59.439Z,96053.66
2019-04-04T12:38:27.767Z,96052.98
2019-04-04T12:40:56.250Z,96058.52
2019-04-04T12:43:24.598Z,96059.87
2019-04-04T12:45:53.767Z,96057.57
2019-04-04T12:48:22.148Z,96057.45
2019-04-04T12:50:50.546Z,96066.55
2019-04-04T12:53:18.868Z,96074.89
2019-04-04T12:55:47.526Z,96070.46
2019-04-04T12:58:16.023Z,96066.76
2019-04-04T13:00:44.402Z,96057.95
2019-04-04T13:03:12.738Z,96060.32
2019-04-04T13:05:41.371Z,96068.27
2019-04-04T13:08:09.719Z,96085.52
2019-04-04T13:10:38.144Z,96089.89
2019-04-04T13:13:06.456Z,96099.48
2019-04-04T13:15:34.935Z,96103.05
2019-04-04T13:18:03.275Z,96106.61
2019-04-04T13:20:31.664Z,96109.88
2019-04-04T13:23:00.264Z,96125.84
2019-04-04T13:25:28.637Z,96128.91
2019-04-04T13:27:57.129Z,96136.92
2019-04-04T13:30:25.658Z,96139.89
2019-04-04T13:32:55.704Z,96137.95
2019-04-04T13:35:24.024Z,96119.91
2019-04-04T13:37:52.429Z,96104.19
2019-04-04T13:40:20.822Z,96098.61
2019-04-04T13:42:52.736Z,96098.74
2019-04-04T13:45:19.401Z,96081.60
2019-04-04T13:47:47.870Z,96085.91
2019-04-04T13:50:19.707Z,96094.45
2019-04-04T13:52:46.825Z,96106.72
2019-04-04T13:55:15.282Z,96117.23
2019-04-04T13:57:45.380Z,96108.55
2019-04-04T14:00:14.340Z,96100.53
2019-04-04T14:02:42.832Z,96111.27
2019-04-04T14:05:14.318Z,96145.08
2019-04-04T14:07:43.694Z,96180.52
2019-04-04T14:10:12.004Z,96177.27
2019-04-04T14:12:40.313Z,96173.45
2019-04-04T14:15:10.878Z,96184.25
2019-04-04T14:17:39.256Z,96190.48
2019-04-04T14:20:11.069Z,96186.56
2019-04-04T14:22:39.497Z,96184.38
2019-04-04T14:25:09.174Z,96171.08
2019-04-04T14:27:37.621Z,96166.64
2019-04-04T14:30:09.689Z,96178.95
2019-04-04T14:32:38.377Z,96181.73
2019-04-04T14:35:08.722Z,96177.13
2019-04-04T14:37:37.662Z,96173.66
2019-04-04T14:40:07.164Z,96177.62
2019-04-04T14:42:36.643Z,96185.09
2019-04-04T14:45:08.015Z,96186.12
2019-04-04T14:47:38.127Z,96189.69
2019-04-04T14:50:08.791Z,96193.59
2019-04-04T14:52:39.488Z,96198.14
2019-04-04T14:55:08.825Z,96194.00
2019-04-04T14:57:37.308Z,96195.67
2019-04-04T15:00:15.750Z,96208.53
2019-04-04T15:02:45.514Z,96222.55
2019-04-04T15:05:14.223Z,96232.20
2019-04-04T15:07:42.726Z,96235.36
2019-04-04T15:10:11.298Z,96245.59
2019-04-04T15:12:40.418Z,96247.48
2019-04-04T15:15:09.544Z,96250.40
2019-04-04T15:17:38.356Z,96249.39
2019-04-04T15:20:08.052Z,96236.74
2019-04-04T15:22:37.861Z,96237.36
2019-04-04T15:25:09.377Z,96236.59
2019-04-04T15:27:38.141Z,96239.03
2019-04-04T15:30:09.468Z,96229.97
2019-04-04T15:32:38.636Z,96223.97
2019-04-04T15:35:07.455Z,96225.76
2019-04-04T15:37:37.654Z,96218.78
2019-04-04T15:40:07.365Z,96210.44
2019-04-04T15:42:36.191Z,96236.27
2019-04-04T15:45:06.352Z,96250.67
2019-04-04T15:47:35.050Z,96262.55
2019-04-04T15:50:04.809Z,96271.20
2019-04-04T15:52:33.328Z,96261.91
2019-04-04T15:55:01.808Z,96255.13
2019-04-04T15:57:30.391Z,96246.97
2019-04-04T15:59:58.988Z,96249.16
2019-04-04T16:02:29.290Z,96235.97
2019-04-04T16:04:57.911Z,96230.95
2019-04-04T16:07:26.320Z,96219.34
2019-04-04T16:09:54.828Z,96207.78
2019-04-04T16:12:23.133Z,96209.37
2019-04-04T16:15:18.554Z,96212.11
2019-04-04T16:20:33.427Z,96231.27
2019-04-04T16:23:01.910Z,96239.05
2019-04-04T16:25:30.451Z,96247.46
2019-04-04T16:28:17.244Z,96256.09
2019-04-04T16:30:45.748Z,96264.12
2019-04-04T16:33:14.357Z,96275.42
2019-04-04T16:35:42.849Z,96278.60
2019-04-04T16:38:17.334Z,96279.20
2019-04-04T16:40:47.543Z,96280.78
2019-04-04T16:43:20.292Z,96290.72
2019-04-04T16:45:50.472Z,96296.07
2019-04-04T16:48:20.416Z,96290.53
2019-04-04T16:50:50.846Z,96295.44
2019-04-04T16:53:20.858Z,96287.42
2019-04-04T16:55:51.369Z,96283.11
2019-04-04T16:58:21.263Z,96276.48
2019-04-04T17:00:53.189Z,96283.02
2019-04-04T17:03:23.204Z,96285.80
2019-04-04T17:05:53.360Z,96289.69
2019-04-04T17:08:24.826Z,96289.26
2019-04-04T17:10:55.224Z,96296.33
2019-04-04T17:13:26.309Z,96300.64
2019-04-04T17:15:57.231Z,96315.69
2019-04-04T17:18:27.353Z,96315.44
2019-04-04T17:21:18.338Z,96320.44
2019-04-04T17:23:48.447Z,96328.70
2019-04-04T17:26:18.642Z,96327.96
2019-04-04T17:31:35.610Z,96336.97
2019-04-04T17:34:18.028Z,96336.47
2019-04-04T17:36:47.978Z,96338.06
2019-04-04T17:39:18.012Z,96342.31
2019-04-04T17:41:50.160Z,96344.73
2019-04-04T17:44:20.296Z,96346.33
2019-04-04T17:46:50.713Z,96347.41
2019-04-04T17:49:20.613Z,96351.97
2019-04-04T17:51:51.829Z,96356.81
2019-04-04T17:54:23.523Z,96360.45
2019-04-04T17:56:53.891Z,96367.92
2019-04-04T17:59:23.900Z,96371.30
2019-04-04T18:01:54.154Z,96376.19
2019-04-04T18:04:24.074Z,96385.09
2019-04-04T18:06:54.195Z,96382.45
2019-04-04T18:09:31.748Z,96395.91
2019-04-04T18:11:56.179Z,96396.92
2019-04-04T18:14:25.981Z,96387.95
2019-04-04T18:16:56.801Z,96371.84
2019-04-04T18:19:25.200Z,96379.78
2019-04-04T18:21:53.640Z,96387.41
2019-04-04T18:24:21.998Z,96385.73
2019-04-04T18:26:50.489Z,96378.45
2019-04-04T18:29:18.814Z,96385.92
2019-04-04T18:31:47.315Z,96397.69
2019-04-04T18:34:15.761Z,96387.87
2019-04-04T18:36:44.093Z,96401.97
2019-04-04T18:39:12.488Z,96412.65
2019-04-04T18:41:40.940Z,96414.34
2019-04-04T18:44:09.391Z,96416.47
2019-04-04T18:46:37.975Z,96423.36
2019-04-04T18:49:06.456Z,96422.42
2019-04-04T18:51:37.606Z,96431.05
2019-04-04T18:54:05.103Z,96434.37
2019-04-04T18:56:36.378Z,96445.33
2019-04-04T18:59:04.955Z,96453.88
2019-04-04T19:01:33.382Z,96460.99
2019-04-04T19:04:01.811Z,96466.72
2019-04-04T19:06:30.252Z,96462.28
2019-04-04T19:08:58.595Z,96479.23
2019-04-04T19:11:26.992Z,96493.38
2019-04-04T19:13:55.407Z,96485.30
2019-04-04T19:16:24.189Z,96472.97
2019-04-04T19:18:52.578Z,96477.19
2019-04-04T19:21:21.063Z,96481.13
2019-04-04T19:23:49.775Z,96490.08
2019-04-04T19:26:18.261Z,96492.63
2019-04-04T19:28:46.671Z,96492.56
2019-04-04T19:31:15.419Z,96483.14
2019-04-04T19:33:43.892Z,96484.22
2019-04-04T19:36:12.514Z,96487.15
2019-04-04T19:38:40.868Z,96495.16
2019-04-04T19:41:09.262Z,96500.56
2019-04-04T19:43:37.662Z,96489.56
2019-04-04T19:46:06.061Z,96485.13
2019-04-04T19:48:34.350Z,96485.45
2019-04-04T19:51:02.869Z,96489.20
2019-04-04T19:53:31.162Z,96487.11
2019-04-04T19:55:59.569Z,96481.23
2019-04-04T19:58:27.889Z,96481.56
2019-04-04T20:00:56.434Z,96493.89
2019-04-04T20:03:24.779Z,96497.89
2019-04-04T20:05:53.179Z,96488.41
2019-04-04T20:08:21.536Z,96487.58
2019-04-04T20:10:49.935Z,96489.20
2019-04-04T20:13:29.998Z,96483.06
2019-04-04T20:15:48.375Z,96495.08
2019-04-04T20:39:01.396Z,96519.45
2019-04-04T20:41:29.838Z,96522.84
2019-04-04T20:43:58.212Z,96515.63
2019-04-04T20:46:26.578Z,96514.08
2019-04-04T20:48:54.933Z,96507.20
2019-04-04T20:51:23.225Z,96509.93
2019-04-04T20:53:51.664Z,96515.23
2019-04-04T20:56:20.102Z,96517.90
2019-04-04T20:58:48.501Z,96526.50
2019-04-04T21:01:16.820Z,96528.11
2019-04-04T21:03:45.209Z,96524.73
2019-04-04T21:06:13.619Z,96524.73
2019-04-04T21:08:42.043Z,96520.73
2019-04-04T21:11:10.407Z,96523.42
2019-04-04T21:13:38.732Z,96538.21
2019-04-04T21:16:07.154Z,96526.30
2019-04-04T21:18:35.555Z,96543.26
2019-04-04T21:21:03.984Z,96559.52
2019-04-04T21:23:32.427Z,96564.62
2019-04-04T21:26:00.800Z,96557.39
2019-04-04T21:28:29.130Z,96546.23
2019-04-04T21:30:57.507Z,96552.56
2019-04-04T21:33:25.839Z,96552.59
2019-04-04T21:35:54.181Z,96548.42
2019-04-04T21:38:22.460Z,96553.41
2019-04-04T21:40:50.924Z,96549.62
2019-04-04T21:43:19.374Z,96530.49
2019-04-04T21:45:47.645Z,96544.00
2019-04-04T21:48:15.926Z,96544.00
2019-04-04T21:50:44.258Z,96552.48
2019-04-04T21:53:12.536Z,96553.28
2019-04-04T21:55:40.883Z,96546.84
2019-04-04T21:58:09.176Z,96555.41
2019-04-04T22:00:39.235Z,96564.23
2019-04-04T22:03:07.594Z,96549.64
2019-04-04T22:05:36.069Z,96569.05
2019-04-04T22:08:04.356Z,96577.05
2019-04-04T22:10:32.821Z,96580.82
2019-04-04T22:13:01.195Z,96589.64
2019-04-04T22:15:29.678Z,96589.64
2019-04-04T22:17:58.019Z,96586.18
2019-04-04T22:20:26.359Z,96586.28
2019-04-04T22:22:54.799Z,96586.28
2019-04-04T22:25:23.135Z,96594.23
2019-04-04T22:27:51.448Z,96605.41
2019-04-04T22:30:19.811Z,96588.44
2019-04-04T22:32:48.198Z,96599.89
2019-04-04T22:35:16.631Z,96602.39
2019-04-04T22:37:45.000Z,96600.31
2019-04-04T22:40:13.397Z,96599.03
2019-04-04T22:42:41.715Z,96589.72
2019-04-04T22:45:10.137Z,96599.63
2019-04-04T22:47:39.316Z,96599.38
2019-04-04T22:50:07.882Z,96596.27
2019-04-04T22:52:36.202Z,96596.27
2019-04-04T22:55:04.626Z,96585.09
2019-04-04T22:57:32.939Z,96579.48
2019-04-04T23:00:01.307Z,96572.63
2019-04-04T23:02:29.752Z,96566.22
2019-04-04T23:04:58.144Z,96578.47
2019-04-04T23:07:26.459Z,96564.66
2019-04-04T23:09:54.857Z,96564.66
2019-04-04T23:12:23.260Z,96561.20
2019-04-04T23:14:51.635Z,96562.52
2019-04-04T23:17:20.054Z,96556.42
2019-04-04T23:19:48.341Z,96572.00
2019-04-04T23:22:16.676Z,96572.00
2019-04-04T23:24:45.049Z,96556.03
2019-04-04T23:27:13.346Z,96558.23
2019-04-04T23:29:42.707Z,96548.13
2019-04-04T23:32:11.186Z,96548.13
2019-04-04T23:34:39.574Z,96549.59
2019-04-04T23:37:08.045Z,96550.37
2019-04-04T23:39:36.432Z,96556.77
2019-04-04T23:42:04.923Z,96562.31
2019-04-04T23:44:33.316Z,96573.82
2019-04-04T23:47:01.561Z,96573.82
2019-04-04T23:49:30.100Z,96586.92
2019-04-04T23:51:58.426Z,96586.92
2019-04-04T23:54:26.741Z,96583.27
2019-04-04T23:56:55.159Z,96592.27
2019-04-04T23:59:23.478Z,96586.89
